South Greenfield, Missouri
Current Conditions -  °F | °C
As of 3:52 PM on Wednesday 26 Nov 2014 (Local Time) from KSGF Reporting Station
Overcast Overcast  
Wind Chill: 39°   Ceiling: 7000
Heat Index: 45°   Visibility: 10mi
Dew Point: 26°   Wind: 14mph
Humidity: 48%   Direction: 290°WNW
Pressure: 30.07"   Gusts: 22mph
Location:  37.38°N, 93.84°W
Report Text: KSGF 262152Z 29012G19KT 10SM SCT060 OVC070 07/M03 A3007 RMK AO2 SLP189 T00721033
Loading
Personal Weather Stations






























Interactive Weather Map New forecast layout! Learn more

10-Day Weather Forecast

Advertisements
Track Severe Weather on mobile